Terminal Aerodrome Forecast
Issued by NWS

Home | Current Version | Previous Version | Text Only | Print | Product List | Glossary On
Versions: 1 2 3 4 5 6 7 8 9 10 11 12 13 14 15 16 17
954
FTUS45 KRIW 051726
TAFJAC
TAF
KJAC 051726Z 0518/0618 28012G18KT P6SM SCT030 BKN040
     FM052000 18011KT P6SM FEW030 SCT050
     FM060200 01006KT P6SM FEW005 SCT030
      AMD LTD TO CLD VIS AND WIND=

USA.gov is the U.S. government's official web portal to all federal, state and local government web resources and services.